sensor_id;sensor_type;location;lat;lon;timestamp;P1;durP1;ratioP1;P2;durP2;ratioP2
25091;SDS011;13082;52.374;4.946;2023-03-14T00:02:09;5.40;;;2.20;;
25091;SDS011;13082;52.374;4.946;2023-03-14T00:04:35;9.67;;;2.20;;
25091;SDS011;13082;52.374;4.946;2023-03-14T00:07:03;6.50;;;2.23;;
25091;SDS011;13082;52.374;4.946;2023-03-14T00:09:29;9.07;;;2.10;;
25091;SDS011;13082;52.374;4.946;2023-03-14T00:11:55;5.17;;;1.90;;
25091;SDS011;13082;52.374;4.946;2023-03-14T00:14:21;10.77;;;1.90;;
25091;SDS011;13082;52.374;4.946;2023-03-14T00:16:46;11.07;;;2.43;;
25091;SDS011;13082;52.374;4.946;2023-03-14T00:19:12;7.43;;;2.63;;
25091;SDS011;13082;52.374;4.946;2023-03-14T00:21:38;7.33;;;2.00;;
25091;SDS011;13082;52.374;4.946;2023-03-14T00:24:04;9.70;;;2.57;;
25091;SDS011;13082;52.374;4.946;2023-03-14T00:26:30;7.60;;;2.20;;
25091;SDS011;13082;52.374;4.946;2023-03-14T00:28:56;11.60;;;2.30;;
25091;SDS011;13082;52.374;4.946;2023-03-14T00:31:21;8.43;;;2.40;;
25091;SDS011;13082;52.374;4.946;2023-03-14T00:33:47;8.33;;;2.50;;
25091;SDS011;13082;52.374;4.946;2023-03-14T00:36:14;7.40;;;2.03;;
25091;SDS011;13082;52.374;4.946;2023-03-14T00:38:41;6.20;;;2.27;;
25091;SDS011;13082;52.374;4.946;2023-03-14T00:41:09;7.00;;;2.00;;
25091;SDS011;13082;52.374;4.946;2023-03-14T00:43:36;6.67;;;1.70;;
25091;SDS011;13082;52.374;4.946;2023-03-14T00:46:02;8.07;;;2.37;;
25091;SDS011;13082;52.374;4.946;2023-03-14T00:48:28;8.93;;;1.80;;
25091;SDS011;13082;52.374;4.946;2023-03-14T00:50:54;6.90;;;1.97;;
25091;SDS011;13082;52.374;4.946;2023-03-14T00:53:19;8.83;;;2.43;;
25091;SDS011;13082;52.374;4.946;2023-03-14T00:55:45;8.70;;;1.70;;
25091;SDS011;13082;52.374;4.946;2023-03-14T00:58:12;3.27;;;1.60;;
25091;SDS011;13082;52.374;4.946;2023-03-14T01:00:39;11.57;;;2.73;;
25091;SDS011;13082;52.374;4.946;2023-03-14T01:03:05;11.93;;;2.10;;
25091;SDS011;13082;52.374;4.946;2023-03-14T01:05:31;11.00;;;2.50;;
25091;SDS011;13082;52.374;4.946;2023-03-14T01:07:57;8.57;;;2.30;;
25091;SDS011;13082;52.374;4.946;2023-03-14T01:10:23;5.63;;;1.30;;
25091;SDS011;13082;52.374;4.946;2023-03-14T01:12:48;7.23;;;2.17;;
25091;SDS011;13082;52.374;4.946;2023-03-14T01:15:14;9.37;;;2.17;;
25091;SDS011;13082;52.374;4.946;2023-03-14T01:17:40;5.33;;;2.00;;
25091;SDS011;13082;52.374;4.946;2023-03-14T01:20:07;15.63;;;2.70;;
25091;SDS011;13082;52.374;4.946;2023-03-14T01:22:35;5.77;;;1.93;;
25091;SDS011;13082;52.374;4.946;2023-03-14T01:25:03;5.77;;;2.20;;
25091;SDS011;13082;52.374;4.946;2023-03-14T01:27:29;12.47;;;1.97;;
25091;SDS011;13082;52.374;4.946;2023-03-14T01:29:55;8.47;;;2.53;;
25091;SDS011;13082;52.374;4.946;2023-03-14T01:32:21;7.17;;;2.17;;
25091;SDS011;13082;52.374;4.946;2023-03-14T01:34:46;8.07;;;1.93;;
25091;SDS011;13082;52.374;4.946;2023-03-14T01:37:12;13.03;;;3.30;;
25091;SDS011;13082;52.374;4.946;2023-03-14T01:39:37;8.53;;;2.50;;
25091;SDS011;13082;52.374;4.946;2023-03-14T01:42:03;10.50;;;3.03;;
25091;SDS011;13082;52.374;4.946;2023-03-14T01:44:46;11.53;;;2.67;;
25091;SDS011;13082;52.374;4.946;2023-03-14T01:47:19;9.57;;;2.83;;
25091;SDS011;13082;52.374;4.946;2023-03-14T01:49:45;12.03;;;2.27;;
25091;SDS011;13082;52.374;4.946;2023-03-14T01:52:19;10.00;;;3.07;;
25091;SDS011;13082;52.374;4.946;2023-03-14T01:55:08;17.27;;;2.40;;
25091;SDS011;13082;52.374;4.946;2023-03-14T01:57:39;11.27;;;2.70;;
25091;SDS011;13082;52.374;4.946;2023-03-14T02:00:11;11.30;;;2.43;;
25091;SDS011;13082;52.374;4.946;2023-03-14T02:02:40;19.57;;;4.90;;
25091;SDS011;13082;52.374;4.946;2023-03-14T02:05:09;11.83;;;3.23;;
25091;SDS011;13082;52.374;4.946;2023-03-14T02:07:45;12.13;;;3.80;;
25091;SDS011;13082;52.374;4.946;2023-03-14T02:10:33;12.50;;;2.63;;
25091;SDS011;13082;52.374;4.946;2023-03-14T02:13:03;16.00;;;2.83;;
25091;SDS011;13082;52.374;4.946;2023-03-14T02:15:30;9.23;;;2.20;;
25091;SDS011;13082;52.374;4.946;2023-03-14T02:17:56;13.60;;;2.80;;
25091;SDS011;13082;52.374;4.946;2023-03-14T02:23:12;10.30;;;2.70;;
25091;SDS011;13082;52.374;4.946;2023-03-14T02:25:43;10.87;;;2.90;;
25091;SDS011;13082;52.374;4.946;2023-03-14T02:28:16;12.97;;;2.53;;
25091;SDS011;13082;52.374;4.946;2023-03-14T02:30:43;13.97;;;2.70;;
25091;SDS011;13082;52.374;4.946;2023-03-14T02:33:10;11.93;;;3.03;;
25091;SDS011;13082;52.374;4.946;2023-03-14T02:35:42;9.83;;;2.93;;
25091;SDS011;13082;52.374;4.946;2023-03-14T02:41:06;10.03;;;2.87;;
25091;SDS011;13082;52.374;4.946;2023-03-14T02:43:32;10.33;;;2.60;;
25091;SDS011;13082;52.374;4.946;2023-03-14T02:45:58;7.17;;;2.37;;
25091;SDS011;13082;52.374;4.946;2023-03-14T02:48:26;8.70;;;2.90;;
25091;SDS011;13082;52.374;4.946;2023-03-14T02:51:04;15.47;;;2.80;;
25091;SDS011;13082;52.374;4.946;2023-03-14T02:53:30;12.83;;;2.40;;
25091;SDS011;13082;52.374;4.946;2023-03-14T02:55:58;5.07;;;2.27;;
25091;SDS011;13082;52.374;4.946;2023-03-14T02:58:24;15.07;;;2.47;;
25091;SDS011;13082;52.374;4.946;2023-03-14T03:00:50;8.13;;;2.87;;
25091;SDS011;13082;52.374;4.946;2023-03-14T03:03:16;7.63;;;2.40;;
25091;SDS011;13082;52.374;4.946;2023-03-14T03:05:42;13.37;;;3.03;;
25091;SDS011;13082;52.374;4.946;2023-03-14T03:08:08;6.30;;;2.77;;
25091;SDS011;13082;52.374;4.946;2023-03-14T03:10:34;9.47;;;2.87;;
25091;SDS011;13082;52.374;4.946;2023-03-14T03:13:00;7.37;;;2.47;;
25091;SDS011;13082;52.374;4.946;2023-03-14T03:15:26;8.97;;;2.43;;
25091;SDS011;13082;52.374;4.946;2023-03-14T03:17:52;8.33;;;2.47;;
25091;SDS011;13082;52.374;4.946;2023-03-14T03:20:18;5.27;;;1.80;;
25091;SDS011;13082;52.374;4.946;2023-03-14T03:22:44;6.33;;;2.10;;
25091;SDS011;13082;52.374;4.946;2023-03-14T03:25:09;9.00;;;2.30;;
25091;SDS011;13082;52.374;4.946;2023-03-14T03:27:35;10.27;;;2.13;;
25091;SDS011;13082;52.374;4.946;2023-03-14T03:30:02;11.67;;;3.17;;
25091;SDS011;13082;52.374;4.946;2023-03-14T03:32:30;10.80;;;3.57;;
25091;SDS011;13082;52.374;4.946;2023-03-14T03:34:55;7.27;;;2.93;;
25091;SDS011;13082;52.374;4.946;2023-03-14T03:37:21;9.33;;;2.40;;
25091;SDS011;13082;52.374;4.946;2023-03-14T03:39:47;13.73;;;3.07;;
25091;SDS011;13082;52.374;4.946;2023-03-14T03:42:14;6.77;;;2.10;;
25091;SDS011;13082;52.374;4.946;2023-03-14T03:44:40;6.70;;;2.27;;
25091;SDS011;13082;52.374;4.946;2023-03-14T03:47:06;9.60;;;3.13;;
25091;SDS011;13082;52.374;4.946;2023-03-14T03:49:31;9.23;;;3.10;;
25091;SDS011;13082;52.374;4.946;2023-03-14T03:51:57;5.93;;;2.93;;
25091;SDS011;13082;52.374;4.946;2023-03-14T03:54:23;7.10;;;2.47;;
25091;SDS011;13082;52.374;4.946;2023-03-14T03:56:49;8.23;;;2.40;;
25091;SDS011;13082;52.374;4.946;2023-03-14T03:59:15;10.23;;;2.40;;
25091;SDS011;13082;52.374;4.946;2023-03-14T04:01:41;4.77;;;2.43;;
25091;SDS011;13082;52.374;4.946;2023-03-14T04:04:07;6.90;;;2.60;;
25091;SDS011;13082;52.374;4.946;2023-03-14T04:06:33;6.97;;;2.30;;
25091;SDS011;13082;52.374;4.946;2023-03-14T04:08:58;5.93;;;1.80;;
25091;SDS011;13082;52.374;4.946;2023-03-14T04:11:24;6.77;;;2.50;;
25091;SDS011;13082;52.374;4.946;2023-03-14T04:13:50;6.77;;;2.50;;
25091;SDS011;13082;52.374;4.946;2023-03-14T04:16:20;11.97;;;2.90;;
25091;SDS011;13082;52.374;4.946;2023-03-14T04:18:47;7.93;;;2.47;;
25091;SDS011;13082;52.374;4.946;2023-03-14T04:21:13;7.73;;;3.13;;
25091;SDS011;13082;52.374;4.946;2023-03-14T04:23:39;6.67;;;2.90;;
25091;SDS011;13082;52.374;4.946;2023-03-14T04:26:05;5.10;;;2.40;;
25091;SDS011;13082;52.374;4.946;2023-03-14T04:28:31;8.67;;;3.43;;
25091;SDS011;13082;52.374;4.946;2023-03-14T04:30:57;6.43;;;2.90;;
25091;SDS011;13082;52.374;4.946;2023-03-14T04:33:22;6.47;;;3.07;;
25091;SDS011;13082;52.374;4.946;2023-03-14T04:35:48;8.50;;;3.20;;
25091;SDS011;13082;52.374;4.946;2023-03-14T04:38:17;8.43;;;3.30;;
25091;SDS011;13082;52.374;4.946;2023-03-14T04:40:43;9.70;;;3.07;;
25091;SDS011;13082;52.374;4.946;2023-03-14T04:43:09;11.57;;;3.70;;
25091;SDS011;13082;52.374;4.946;2023-03-14T04:45:36;9.57;;;3.90;;
25091;SDS011;13082;52.374;4.946;2023-03-14T04:48:02;8.67;;;3.63;;
25091;SDS011;13082;52.374;4.946;2023-03-14T04:50:27;9.83;;;3.20;;
25091;SDS011;13082;52.374;4.946;2023-03-14T04:52:53;8.30;;;3.30;;
25091;SDS011;13082;52.374;4.946;2023-03-14T04:55:18;9.13;;;3.53;;
25091;SDS011;13082;52.374;4.946;2023-03-14T04:57:44;8.73;;;3.47;;
25091;SDS011;13082;52.374;4.946;2023-03-14T05:00:10;9.00;;;4.17;;
25091;SDS011;13082;52.374;4.946;2023-03-14T05:02:36;9.97;;;3.17;;
25091;SDS011;13082;52.374;4.946;2023-03-14T05:05:02;8.33;;;3.30;;
25091;SDS011;13082;52.374;4.946;2023-03-14T05:07:28;10.37;;;2.97;;
25091;SDS011;13082;52.374;4.946;2023-03-14T05:09:53;16.03;;;3.80;;
25091;SDS011;13082;52.374;4.946;2023-03-14T05:12:20;7.73;;;3.30;;
25091;SDS011;13082;52.374;4.946;2023-03-14T05:14:46;10.00;;;3.70;;
25091;SDS011;13082;52.374;4.946;2023-03-14T05:17:11;8.40;;;3.37;;
25091;SDS011;13082;52.374;4.946;2023-03-14T05:19:39;12.03;;;4.23;;
25091;SDS011;13082;52.374;4.946;2023-03-14T05:22:05;9.83;;;3.57;;
25091;SDS011;13082;52.374;4.946;2023-03-14T05:24:31;9.17;;;3.63;;
25091;SDS011;13082;52.374;4.946;2023-03-14T05:26:56;6.23;;;3.20;;
25091;SDS011;13082;52.374;4.946;2023-03-14T05:29:22;8.93;;;3.00;;
25091;SDS011;13082;52.374;4.946;2023-03-14T05:31:47;11.07;;;6.07;;
25091;SDS011;13082;52.374;4.946;2023-03-14T05:34:13;7.03;;;3.43;;
25091;SDS011;13082;52.374;4.946;2023-03-14T05:36:39;5.63;;;3.37;;
25091;SDS011;13082;52.374;4.946;2023-03-14T05:39:04;5.90;;;3.13;;
25091;SDS011;13082;52.374;4.946;2023-03-14T05:41:30;3.53;;;2.47;;
25091;SDS011;13082;52.374;4.946;2023-03-14T05:43:55;2.80;;;2.10;;
25091;SDS011;13082;52.374;4.946;2023-03-14T05:46:21;3.77;;;1.80;;
25091;SDS011;13082;52.374;4.946;2023-03-14T05:48:46;1.67;;;1.30;;
25091;SDS011;13082;52.374;4.946;2023-03-14T05:51:12;2.73;;;1.43;;
25091;SDS011;13082;52.374;4.946;2023-03-14T05:53:38;6.23;;;1.47;;
25091;SDS011;13082;52.374;4.946;2023-03-14T05:56:03;1.43;;;1.20;;
25091;SDS011;13082;52.374;4.946;2023-03-14T05:58:29;2.47;;;1.93;;
25091;SDS011;13082;52.374;4.946;2023-03-14T06:00:55;2.57;;;1.53;;
25091;SDS011;13082;52.374;4.946;2023-03-14T06:03:20;3.23;;;1.50;;
25091;SDS011;13082;52.374;4.946;2023-03-14T06:05:46;3.27;;;1.30;;
25091;SDS011;13082;52.374;4.946;2023-03-14T06:08:14;4.27;;;1.47;;
25091;SDS011;13082;52.374;4.946;2023-03-14T06:10:39;4.77;;;1.33;;
25091;SDS011;13082;52.374;4.946;2023-03-14T06:13:05;3.77;;;1.20;;
25091;SDS011;13082;52.374;4.946;2023-03-14T06:15:30;6.60;;;1.30;;
25091;SDS011;13082;52.374;4.946;2023-03-14T06:17:57;3.47;;;1.60;;
25091;SDS011;13082;52.374;4.946;2023-03-14T06:20:23;3.80;;;1.50;;
25091;SDS011;13082;52.374;4.946;2023-03-14T06:22:49;3.43;;;2.00;;
25091;SDS011;13082;52.374;4.946;2023-03-14T06:25:14;1.20;;;1.10;;
25091;SDS011;13082;52.374;4.946;2023-03-14T06:27:40;5.50;;;1.37;;
25091;SDS011;13082;52.374;4.946;2023-03-14T06:30:06;1.43;;;1.00;;
25091;SDS011;13082;52.374;4.946;2023-03-14T06:32:32;3.00;;;1.10;;
25091;SDS011;13082;52.374;4.946;2023-03-14T06:34:58;2.00;;;1.20;;
25091;SDS011;13082;52.374;4.946;2023-03-14T06:37:26;2.03;;;1.03;;
25091;SDS011;13082;52.374;4.946;2023-03-14T06:39:53;1.77;;;1.67;;
25091;SDS011;13082;52.374;4.946;2023-03-14T06:42:18;1.37;;;1.07;;
25091;SDS011;13082;52.374;4.946;2023-03-14T06:44:44;4.50;;;1.43;;
25091;SDS011;13082;52.374;4.946;2023-03-14T06:47:10;4.27;;;1.40;;
25091;SDS011;13082;52.374;4.946;2023-03-14T06:49:35;4.43;;;1.40;;
25091;SDS011;13082;52.374;4.946;2023-03-14T06:52:01;4.83;;;1.50;;
25091;SDS011;13082;52.374;4.946;2023-03-14T06:54:26;2.23;;;1.33;;
25091;SDS011;13082;52.374;4.946;2023-03-14T06:56:52;5.40;;;1.50;;
25091;SDS011;13082;52.374;4.946;2023-03-14T06:59:18;2.20;;;1.40;;
25091;SDS011;13082;52.374;4.946;2023-03-14T07:01:43;6.07;;;1.60;;
25091;SDS011;13082;52.374;4.946;2023-03-14T07:04:09;4.17;;;1.20;;
25091;SDS011;13082;52.374;4.946;2023-03-14T07:06:35;3.93;;;1.30;;
25091;SDS011;13082;52.374;4.946;2023-03-14T07:09:01;6.17;;;1.50;;
25091;SDS011;13082;52.374;4.946;2023-03-14T07:11:27;5.20;;;1.97;;
25091;SDS011;13082;52.374;4.946;2023-03-14T07:13:52;9.27;;;1.93;;
25091;SDS011;13082;52.374;4.946;2023-03-14T07:16:18;7.67;;;2.83;;
25091;SDS011;13082;52.374;4.946;2023-03-14T07:18:44;4.40;;;2.20;;
25091;SDS011;13082;52.374;4.946;2023-03-14T07:21:10;5.40;;;1.87;;
25091;SDS011;13082;52.374;4.946;2023-03-14T07:23:37;2.97;;;1.60;;
25091;SDS011;13082;52.374;4.946;2023-03-14T07:26:03;2.87;;;1.20;;
25091;SDS011;13082;52.374;4.946;2023-03-14T07:28:29;2.23;;;1.00;;
25091;SDS011;13082;52.374;4.946;2023-03-14T07:30:55;2.03;;;1.20;;
25091;SDS011;13082;52.374;4.946;2023-03-14T07:33:21;5.03;;;0.77;;
25091;SDS011;13082;52.374;4.946;2023-03-14T07:35:47;2.73;;;1.10;;
25091;SDS011;13082;52.374;4.946;2023-03-14T07:38:13;7.60;;;1.30;;
25091;SDS011;13082;52.374;4.946;2023-03-14T07:40:39;1.30;;;1.03;;
25091;SDS011;13082;52.374;4.946;2023-03-14T07:43:05;10.40;;;1.20;;
25091;SDS011;13082;52.374;4.946;2023-03-14T07:45:31;5.97;;;1.27;;
25091;SDS011;13082;52.374;4.946;2023-03-14T07:47:56;4.77;;;1.17;;
25091;SDS011;13082;52.374;4.946;2023-03-14T07:50:23;7.30;;;1.30;;
25091;SDS011;13082;52.374;4.946;2023-03-14T07:52:49;1.80;;;0.93;;
25091;SDS011;13082;52.374;4.946;2023-03-14T07:55:15;2.67;;;1.00;;
25091;SDS011;13082;52.374;4.946;2023-03-14T07:57:40;5.00;;;1.50;;
25091;SDS011;13082;52.374;4.946;2023-03-14T08:00:07;3.23;;;1.07;;
25091;SDS011;13082;52.374;4.946;2023-03-14T08:02:33;5.00;;;1.33;;
25091;SDS011;13082;52.374;4.946;2023-03-14T08:04:58;3.33;;;1.17;;
25091;SDS011;13082;52.374;4.946;2023-03-14T08:07:24;2.50;;;0.83;;
25091;SDS011;13082;52.374;4.946;2023-03-14T08:09:50;2.13;;;1.40;;
25091;SDS011;13082;52.374;4.946;2023-03-14T08:12:15;6.57;;;0.80;;
25091;SDS011;13082;52.374;4.946;2023-03-14T08:14:41;4.77;;;0.93;;
25091;SDS011;13082;52.374;4.946;2023-03-14T08:17:07;3.27;;;1.10;;
25091;SDS011;13082;52.374;4.946;2023-03-14T08:19:33;4.30;;;0.90;;
25091;SDS011;13082;52.374;4.946;2023-03-14T08:21:59;3.93;;;1.37;;
25091;SDS011;13082;52.374;4.946;2023-03-14T08:24:24;4.97;;;1.30;;
25091;SDS011;13082;52.374;4.946;2023-03-14T08:26:50;5.70;;;1.23;;
25091;SDS011;13082;52.374;4.946;2023-03-14T08:29:16;4.67;;;1.20;;
25091;SDS011;13082;52.374;4.946;2023-03-14T08:31:41;3.47;;;0.90;;
25091;SDS011;13082;52.374;4.946;2023-03-14T08:34:07;2.77;;;1.73;;
25091;SDS011;13082;52.374;4.946;2023-03-14T08:36:33;3.47;;;1.37;;
25091;SDS011;13082;52.374;4.946;2023-03-14T08:38:59;5.10;;;1.37;;
25091;SDS011;13082;52.374;4.946;2023-03-14T08:41:24;5.50;;;2.13;;
25091;SDS011;13082;52.374;4.946;2023-03-14T08:43:50;4.13;;;2.33;;
25091;SDS011;13082;52.374;4.946;2023-03-14T08:46:15;18.03;;;2.40;;
25091;SDS011;13082;52.374;4.946;2023-03-14T08:48:41;8.27;;;2.60;;
25091;SDS011;13082;52.374;4.946;2023-03-14T08:51:11;9.53;;;2.17;;
25091;SDS011;13082;52.374;4.946;2023-03-14T08:53:37;7.87;;;2.10;;
25091;SDS011;13082;52.374;4.946;2023-03-14T08:56:03;9.70;;;1.70;;
25091;SDS011;13082;52.374;4.946;2023-03-14T08:58:31;8.53;;;3.07;;
25091;SDS011;13082;52.374;4.946;2023-03-14T09:00:57;9.73;;;1.63;;
25091;SDS011;13082;52.374;4.946;2023-03-14T09:03:23;7.00;;;1.97;;
25091;SDS011;13082;52.374;4.946;2023-03-14T09:05:49;5.90;;;2.00;;
25091;SDS011;13082;52.374;4.946;2023-03-14T09:08:15;7.50;;;2.17;;
25091;SDS011;13082;52.374;4.946;2023-03-14T09:10:41;8.97;;;1.80;;
25091;SDS011;13082;52.374;4.946;2023-03-14T09:13:07;7.50;;;1.90;;
25091;SDS011;13082;52.374;4.946;2023-03-14T09:15:32;9.67;;;1.90;;
25091;SDS011;13082;52.374;4.946;2023-03-14T09:17:58;7.43;;;2.00;;
25091;SDS011;13082;52.374;4.946;2023-03-14T09:20:24;8.57;;;2.10;;
25091;SDS011;13082;52.374;4.946;2023-03-14T09:22:49;11.40;;;2.80;;
25091;SDS011;13082;52.374;4.946;2023-03-14T09:25:15;13.23;;;2.47;;
25091;SDS011;13082;52.374;4.946;2023-03-14T09:27:41;18.73;;;3.17;;
25091;SDS011;13082;52.374;4.946;2023-03-14T09:30:07;5.03;;;1.50;;
25091;SDS011;13082;52.374;4.946;2023-03-14T09:32:33;6.63;;;1.93;;
25091;SDS011;13082;52.374;4.946;2023-03-14T09:34:59;14.53;;;2.70;;
25091;SDS011;13082;52.374;4.946;2023-03-14T09:37:24;8.53;;;1.70;;
25091;SDS011;13082;52.374;4.946;2023-03-14T09:39:50;14.93;;;2.50;;
25091;SDS011;13082;52.374;4.946;2023-03-14T09:42:17;18.20;;;2.70;;
25091;SDS011;13082;52.374;4.946;2023-03-14T09:45:10;13.37;;;2.73;;
25091;SDS011;13082;52.374;4.946;2023-03-14T09:47:37;8.00;;;2.30;;
25091;SDS011;13082;52.374;4.946;2023-03-14T09:50:05;11.63;;;2.23;;
25091;SDS011;13082;52.374;4.946;2023-03-14T09:52:39;7.23;;;2.17;;
25091;SDS011;13082;52.374;4.946;2023-03-14T09:55:10;13.20;;;2.80;;
25091;SDS011;13082;52.374;4.946;2023-03-14T09:57:37;14.33;;;2.97;;
25091;SDS011;13082;52.374;4.946;2023-03-14T10:00:25;16.27;;;2.97;;
25091;SDS011;13082;52.374;4.946;2023-03-14T10:05:24;14.00;;;2.70;;
25091;SDS011;13082;52.374;4.946;2023-03-14T10:07:53;14.77;;;2.83;;
25091;SDS011;13082;52.374;4.946;2023-03-14T10:10:19;9.80;;;2.33;;
25091;SDS011;13082;52.374;4.946;2023-03-14T10:12:48;9.83;;;2.77;;
25091;SDS011;13082;52.374;4.946;2023-03-14T10:15:24;14.47;;;2.57;;
25091;SDS011;13082;52.374;4.946;2023-03-14T10:17:58;15.47;;;3.43;;
25091;SDS011;13082;52.374;4.946;2023-03-14T10:20:35;10.77;;;2.30;;
25091;SDS011;13082;52.374;4.946;2023-03-14T10:25:37;6.07;;;2.27;;
25091;SDS011;13082;52.374;4.946;2023-03-14T10:30:51;9.60;;;2.13;;
25091;SDS011;13082;52.374;4.946;2023-03-14T10:35:52;13.57;;;3.33;;
25091;SDS011;13082;52.374;4.946;2023-03-14T10:38:19;16.40;;;2.80;;
25091;SDS011;13082;52.374;4.946;2023-03-14T10:40:48;10.90;;;2.73;;
25091;SDS011;13082;52.374;4.946;2023-03-14T10:43:18;14.30;;;2.37;;
25091;SDS011;13082;52.374;4.946;2023-03-14T10:45:57;14.60;;;2.27;;
25091;SDS011;13082;52.374;4.946;2023-03-14T10:48:31;9.03;;;1.90;;
25091;SDS011;13082;52.374;4.946;2023-03-14T10:51:06;6.60;;;2.00;;
25091;SDS011;13082;52.374;4.946;2023-03-14T10:53:59;5.70;;;2.00;;
25091;SDS011;13082;52.374;4.946;2023-03-14T10:56:37;9.80;;;2.37;;
25091;SDS011;13082;52.374;4.946;2023-03-14T10:59:04;6.80;;;2.40;;
25091;SDS011;13082;52.374;4.946;2023-03-14T11:01:37;8.00;;;1.90;;
25091;SDS011;13082;52.374;4.946;2023-03-14T11:04:14;3.87;;;1.67;;
25091;SDS011;13082;52.374;4.946;2023-03-14T11:09:38;8.80;;;2.33;;
25091;SDS011;13082;52.374;4.946;2023-03-14T11:12:25;14.23;;;2.10;;
25091;SDS011;13082;52.374;4.946;2023-03-14T11:15:04;4.80;;;1.63;;
25091;SDS011;13082;52.374;4.946;2023-03-14T11:17:43;9.50;;;1.50;;
25091;SDS011;13082;52.374;4.946;2023-03-14T11:23:24;4.93;;;1.80;;
25091;SDS011;13082;52.374;4.946;2023-03-14T11:26:26;8.10;;;2.47;;
25091;SDS011;13082;52.374;4.946;2023-03-14T11:29:20;9.13;;;2.47;;
25091;SDS011;13082;52.374;4.946;2023-03-14T11:31:54;8.17;;;2.23;;
25091;SDS011;13082;52.374;4.946;2023-03-14T11:34:26;8.10;;;2.23;;
25091;SDS011;13082;52.374;4.946;2023-03-14T11:37:07;8.60;;;1.80;;
25091;SDS011;13082;52.374;4.946;2023-03-14T11:39:44;10.30;;;1.93;;
25091;SDS011;13082;52.374;4.946;2023-03-14T11:42:16;8.23;;;2.30;;
25091;SDS011;13082;52.374;4.946;2023-03-14T11:44:48;10.83;;;2.07;;
25091;SDS011;13082;52.374;4.946;2023-03-14T11:47:37;11.50;;;2.10;;
25091;SDS011;13082;52.374;4.946;2023-03-14T11:50:17;3.63;;;1.43;;
25091;SDS011;13082;52.374;4.946;2023-03-14T11:52:50;3.83;;;1.50;;
25091;SDS011;13082;52.374;4.946;2023-03-14T11:55:27;7.00;;;1.93;;
25091;SDS011;13082;52.374;4.946;2023-03-14T11:58:01;4.40;;;1.90;;
25091;SDS011;13082;52.374;4.946;2023-03-14T12:00:45;8.77;;;1.77;;
25091;SDS011;13082;52.374;4.946;2023-03-14T12:03:16;10.20;;;1.50;;
25091;SDS011;13082;52.374;4.946;2023-03-14T12:13:56;3.57;;;1.30;;
25091;SDS011;13082;52.374;4.946;2023-03-14T12:18:51;3.97;;;1.50;;
25091;SDS011;13082;52.374;4.946;2023-03-14T12:21:17;3.73;;;1.60;;
25091;SDS011;13082;52.374;4.946;2023-03-14T12:28:36;13.30;;;2.37;;
25091;SDS011;13082;52.374;4.946;2023-03-14T12:42:14;3.17;;;1.00;;
25091;SDS011;13082;52.374;4.946;2023-03-14T12:45:40;2.80;;;1.27;;
25091;SDS011;13082;52.374;4.946;2023-03-14T12:47:53;5.37;;;1.30;;
25091;SDS011;13082;52.374;4.946;2023-03-14T12:56:11;6.77;;;1.47;;
25091;SDS011;13082;52.374;4.946;2023-03-14T13:01:25;4.57;;;1.50;;
25091;SDS011;13082;52.374;4.946;2023-03-14T13:03:51;5.90;;;1.93;;
25091;SDS011;13082;52.374;4.946;2023-03-14T13:14:45;4.73;;;1.40;;
25091;SDS011;13082;52.374;4.946;2023-03-14T13:17:19;7.53;;;1.70;;
25091;SDS011;13082;52.374;4.946;2023-03-14T13:19:52;6.53;;;1.63;;
25091;SDS011;13082;52.374;4.946;2023-03-14T13:22:23;10.03;;;2.00;;
25091;SDS011;13082;52.374;4.946;2023-03-14T13:25:05;6.13;;;1.43;;
25091;SDS011;13082;52.374;4.946;2023-03-14T13:27:35;6.50;;;1.77;;
25091;SDS011;13082;52.374;4.946;2023-03-14T13:30:21;1.87;;;1.40;;
25091;SDS011;13082;52.374;4.946;2023-03-14T13:32:47;8.80;;;1.53;;
25091;SDS011;13082;52.374;4.946;2023-03-14T13:35:22;2.60;;;1.33;;
25091;SDS011;13082;52.374;4.946;2023-03-14T13:37:59;4.90;;;1.27;;
25091;SDS011;13082;52.374;4.946;2023-03-14T13:40:33;5.53;;;1.23;;
25091;SDS011;13082;52.374;4.946;2023-03-14T13:43:11;2.50;;;1.13;;
25091;SDS011;13082;52.374;4.946;2023-03-14T13:45:53;2.63;;;0.93;;
25091;SDS011;13082;52.374;4.946;2023-03-14T13:48:21;4.67;;;1.40;;
25091;SDS011;13082;52.374;4.946;2023-03-14T13:50:53;2.87;;;1.07;;
25091;SDS011;13082;52.374;4.946;2023-03-14T13:53:23;1.63;;;0.90;;
25091;SDS011;13082;52.374;4.946;2023-03-14T13:55:49;3.97;;;1.60;;
25091;SDS011;13082;52.374;4.946;2023-03-14T13:58:28;5.03;;;1.67;;
25091;SDS011;13082;52.374;4.946;2023-03-14T14:00:56;3.53;;;0.70;;
25091;SDS011;13082;52.374;4.946;2023-03-14T14:03:26;6.33;;;1.40;;
25091;SDS011;13082;52.374;4.946;2023-03-14T14:05:54;6.57;;;1.10;;
25091;SDS011;13082;52.374;4.946;2023-03-14T14:08:22;8.63;;;1.43;;
25091;SDS011;13082;52.374;4.946;2023-03-14T14:10:48;3.17;;;1.07;;
25091;SDS011;13082;52.374;4.946;2023-03-14T14:13:15;8.53;;;1.30;;
25091;SDS011;13082;52.374;4.946;2023-03-14T14:15:44;7.60;;;1.47;;
25091;SDS011;13082;52.374;4.946;2023-03-14T14:18:13;1.50;;;0.80;;
25091;SDS011;13082;52.374;4.946;2023-03-14T14:20:41;1.10;;;0.93;;
25091;SDS011;13082;52.374;4.946;2023-03-14T14:23:09;5.00;;;1.30;;
25091;SDS011;13082;52.374;4.946;2023-03-14T14:25:37;3.20;;;1.30;;
25091;SDS011;13082;52.374;4.946;2023-03-14T14:33:43;5.50;;;1.77;;
25091;SDS011;13082;52.374;4.946;2023-03-14T14:36:21;1.93;;;1.10;;
25091;SDS011;13082;52.374;4.946;2023-03-14T14:38:50;5.27;;;1.57;;
25091;SDS011;13082;52.374;4.946;2023-03-14T14:41:18;6.37;;;1.50;;
25091;SDS011;13082;52.374;4.946;2023-03-14T14:43:44;6.03;;;1.53;;
25091;SDS011;13082;52.374;4.946;2023-03-14T14:46:09;7.03;;;1.33;;
25091;SDS011;13082;52.374;4.946;2023-03-14T14:48:41;4.20;;;1.20;;
25091;SDS011;13082;52.374;4.946;2023-03-14T14:51:07;8.13;;;1.13;;
25091;SDS011;13082;52.374;4.946;2023-03-14T14:53:40;2.70;;;1.00;;
25091;SDS011;13082;52.374;4.946;2023-03-14T14:56:13;12.27;;;7.47;;
25091;SDS011;13082;52.374;4.946;2023-03-14T14:58:43;10.53;;;6.40;;
25091;SDS011;13082;52.374;4.946;2023-03-14T15:01:12;3.00;;;2.27;;
25091;SDS011;13082;52.374;4.946;2023-03-14T15:03:44;11.53;;;2.20;;
25091;SDS011;13082;52.374;4.946;2023-03-14T15:06:12;7.53;;;1.67;;
25091;SDS011;13082;52.374;4.946;2023-03-14T15:08:39;7.03;;;3.60;;
25091;SDS011;13082;52.374;4.946;2023-03-14T15:11:05;15.83;;;6.60;;
25091;SDS011;13082;52.374;4.946;2023-03-14T15:13:31;9.37;;;3.80;;
25091;SDS011;13082;52.374;4.946;2023-03-14T15:15:56;9.97;;;3.47;;
25091;SDS011;13082;52.374;4.946;2023-03-14T15:18:27;13.57;;;4.63;;
25091;SDS011;13082;52.374;4.946;2023-03-14T15:20:54;6.50;;;3.97;;
25091;SDS011;13082;52.374;4.946;2023-03-14T15:23:20;10.43;;;3.63;;
25091;SDS011;13082;52.374;4.946;2023-03-14T15:25:46;8.53;;;2.40;;
25091;SDS011;13082;52.374;4.946;2023-03-14T15:28:24;9.57;;;3.40;;
25091;SDS011;13082;52.374;4.946;2023-03-14T15:30:55;5.60;;;2.00;;
25091;SDS011;13082;52.374;4.946;2023-03-14T15:33:22;4.17;;;1.80;;
25091;SDS011;13082;52.374;4.946;2023-03-14T15:35:49;6.60;;;1.80;;
25091;SDS011;13082;52.374;4.946;2023-03-14T15:38:18;11.20;;;2.57;;
25091;SDS011;13082;52.374;4.946;2023-03-14T15:40:48;3.90;;;1.27;;
25091;SDS011;13082;52.374;4.946;2023-03-14T15:43:15;7.47;;;1.63;;
25091;SDS011;13082;52.374;4.946;2023-03-14T15:45:41;3.30;;;1.37;;
25091;SDS011;13082;52.374;4.946;2023-03-14T15:48:09;10.00;;;1.77;;
25091;SDS011;13082;52.374;4.946;2023-03-14T15:50:40;6.73;;;1.37;;
25091;SDS011;13082;52.374;4.946;2023-03-14T15:53:06;10.23;;;2.20;;
25091;SDS011;13082;52.374;4.946;2023-03-14T15:55:35;3.17;;;1.43;;
25091;SDS011;13082;52.374;4.946;2023-03-14T15:58:00;2.57;;;1.43;;
25091;SDS011;13082;52.374;4.946;2023-03-14T16:00:27;3.77;;;1.60;;
25091;SDS011;13082;52.374;4.946;2023-03-14T16:02:53;3.63;;;1.63;;
25091;SDS011;13082;52.374;4.946;2023-03-14T16:05:19;7.37;;;1.37;;